University of Illinois Willard Airport
KCMI : now visible

Airfield :











YOU CAN JOIN US ON...

 
LOGIN :

Register | Disclaimer

   EN    FR    IT 

 









Legend :    VFR   Marginal VFR   IFR   Intensive IFR   Very Intensive IFR
Visi :
Ceiling :
>= 8 km
>= 3000ft
5 to 8 km
1000 to 3000 ft
1500m to 5 km
500 to 1000 ft
800 to 1500m
200 to 500 ft
< 800m
< 200 ft
Symbols :   Thunderstorms  Fog  Heavy snow  Heavy precipitations  Wind > 20 kt






- Airport Elevation : 755 ft
- IATA code : CMI


KCMI - University of Illinois Willard

CURRENT METAR :
  • 201153Z 04009KT 10SM OVC055 07/04 A3020 RMK AO2 SLP231 T00720039 10083 20072 51011

EXPIRED METARs :
  • 201053Z 02009KT 10SM OVC043 08/04 A3020 RMK AO2 SLP230 T00780039
  • 200953Z AUTO 02008KT 10SM OVC042 08/04 A3018 RMK AO2 SLP223 T00780039

TAF KCMI
Valid from the 20 at 12:00 until the 21 at 12:00 UTC


201120Z 2012/2112 04008KT P6SM BKN045
FM202100 13010KT P6SM OVC025
FM202300 13009KT P6SM VCSH OVC015
FM210300 19010KT 4SM SHRA BR VCTS OVC007CB
FM210900 28008KT P6SM OVC012
KZAU FIR / North America



MET'MAP, your aeronautical weather chart ! - Copyright ORBIFLY December 2007 - Disclaimer

ORBIFLY MET'MAP TEAM :

Programming & Development : Alexandra Zaïnal
Concept & original design : Baudouin d'Aumeries
Assistance for programming : Marc-Olivier Méhu
Technical & hardware support : Manuel Goepfert

Contact : metmap@orbifly.com




SOURCES & CREDITS :

   NOAA       Earth
Advisory